Thayer, Kansas
Current Conditions -  °F | °C
As of 4:52 AM on Thursday 23 Oct 2014 (Local Time) from KPPF Reporting Station
Light Rain Light Rain  
Wind Chill: 60°   Ceiling: 9000
Heat Index: 60°   Visibility: 10mi
Dew Point: 58°   Wind: 7mph
Humidity: 93%   Direction: 170°S
Pressure: 30.12"   Gusts: NA
Location:  37.49°N, 95.47°W
Report Text: KPPF 230952Z AUTO 17006KT 10SM -RA OVC090 16/14 A3012 RMK AO2 RAB24 SLP193 P0000 T01560144
Loading
Personal Weather Stations






























Interactive Weather Map
Tropical Storm Tracking
New forecast layout! Learn more

10-Day Weather Forecast

Advertisements
Track Severe Weather on mobile